Huntimer, South Dakota
Current Conditions -  °F | °C
As of 5:50 PM on Thursday 18 Dec 2014 (Local Time) from KMDS Reporting Station
Overcast Overcast  
Wind Chill: 17°   Ceiling: 2600
Heat Index: 25°   Visibility: 10mi
Dew Point: 25°   Wind: 7mph
Humidity: 100%   Direction: 160°SSE
Pressure: 30.14"   Gusts: NA
Location:  43.8049°N, 97.0095°W
Report Text: KMDS 182350Z AUTO 16006KT 10SM OVC026 M04/M04 A3014 RMK AO2
Loading
Personal Weather Stations






























Interactive Weather Map New forecast layout! Learn more

10-Day Weather Forecast

Advertisements
Track Severe Weather on mobile